KRCR

Fulton County Airport

Rochester, Indiana, USA
METAR KRCR 162255Z AUTO 00000KT 10SM OVC032 01/M05 A3025 RMK AO2
Observed Flight Rules
Jan-16 @ 22:55 UTC (20 minutes ago) Visual Flight Rules
Visibility Clouds
10 miles
  • Overcast at 3,200' AGL
Temperatures Readings
Current 1°C / 34°F
Dewpoint -5°C / 23°F
Humidity 65%
Altimeter 30.25" Hg
Pressure 1024.42 hPa
Elevation 241
METAR KRCR 162255Z AUTO 00000KT 10SM OVC032 01/M05 A3025 RMK AO2
Observed Flight Rules
Jan-16 @ 22:55 UTC
(20 minutes ago)
VFR
Clouds
  • Overcast at 3,200' AGL
Temperature Dewpoint
1°C / 34°F -5°C / 23°F
Humidity Altimeter Pressure
65% 30.25" Hg 1024.42 hPa